sensor_id;sensor_type;location;lat;lon;timestamp;P1;durP1;ratioP1;P2;durP2;ratioP2
74371;SDS011;62885;51.374;6.170;2023-02-04T00:01:29;6.78;;;1.58;;
74371;SDS011;62885;51.374;6.170;2023-02-04T00:03:55;8.20;;;1.60;;
74371;SDS011;62885;51.374;6.170;2023-02-04T00:06:20;10.07;;;1.65;;
74371;SDS011;62885;51.374;6.170;2023-02-04T00:08:45;14.32;;;1.95;;
74371;SDS011;62885;51.374;6.170;2023-02-04T00:11:11;13.23;;;1.92;;
74371;SDS011;62885;51.374;6.170;2023-02-04T00:13:36;9.70;;;1.95;;
74371;SDS011;62885;51.374;6.170;2023-02-04T00:16:01;10.70;;;1.48;;
74371;SDS011;62885;51.374;6.170;2023-02-04T00:18:27;8.02;;;1.92;;
74371;SDS011;62885;51.374;6.170;2023-02-04T00:20:53;11.27;;;1.40;;
74371;SDS011;62885;51.374;6.170;2023-02-04T00:23:18;9.27;;;1.05;;
74371;SDS011;62885;51.374;6.170;2023-02-04T00:25:43;12.73;;;1.73;;
74371;SDS011;62885;51.374;6.170;2023-02-04T00:28:09;13.98;;;1.95;;
74371;SDS011;62885;51.374;6.170;2023-02-04T00:30:34;10.23;;;1.42;;
74371;SDS011;62885;51.374;6.170;2023-02-04T00:33:00;9.07;;;1.85;;
74371;SDS011;62885;51.374;6.170;2023-02-04T00:35:25;10.57;;;1.75;;
74371;SDS011;62885;51.374;6.170;2023-02-04T00:37:50;7.80;;;1.52;;
74371;SDS011;62885;51.374;6.170;2023-02-04T00:40:16;9.98;;;2.75;;
74371;SDS011;62885;51.374;6.170;2023-02-04T00:42:41;11.02;;;1.77;;
74371;SDS011;62885;51.374;6.170;2023-02-04T00:45:07;11.52;;;2.33;;
74371;SDS011;62885;51.374;6.170;2023-02-04T00:47:33;14.90;;;2.17;;
74371;SDS011;62885;51.374;6.170;2023-02-04T00:49:58;6.95;;;1.27;;
74371;SDS011;62885;51.374;6.170;2023-02-04T00:52:24;4.70;;;1.10;;
74371;SDS011;62885;51.374;6.170;2023-02-04T00:54:49;6.32;;;1.80;;
74371;SDS011;62885;51.374;6.170;2023-02-04T00:57:15;12.93;;;2.15;;
74371;SDS011;62885;51.374;6.170;2023-02-04T00:59:40;10.38;;;1.60;;
74371;SDS011;62885;51.374;6.170;2023-02-04T01:02:05;14.48;;;2.35;;
74371;SDS011;62885;51.374;6.170;2023-02-04T01:04:31;11.00;;;1.77;;
74371;SDS011;62885;51.374;6.170;2023-02-04T01:06:56;7.47;;;1.88;;
74371;SDS011;62885;51.374;6.170;2023-02-04T01:09:22;13.25;;;2.05;;
74371;SDS011;62885;51.374;6.170;2023-02-04T01:11:47;10.50;;;2.20;;
74371;SDS011;62885;51.374;6.170;2023-02-04T01:14:13;5.65;;;2.17;;
74371;SDS011;62885;51.374;6.170;2023-02-04T01:16:40;11.20;;;2.03;;
74371;SDS011;62885;51.374;6.170;2023-02-04T01:19:06;11.10;;;2.10;;
74371;SDS011;62885;51.374;6.170;2023-02-04T01:21:32;10.98;;;2.60;;
74371;SDS011;62885;51.374;6.170;2023-02-04T01:23:57;8.85;;;1.42;;
74371;SDS011;62885;51.374;6.170;2023-02-04T01:26:23;9.40;;;1.83;;
74371;SDS011;62885;51.374;6.170;2023-02-04T01:28:48;10.48;;;1.83;;
74371;SDS011;62885;51.374;6.170;2023-02-04T01:31:14;13.98;;;2.83;;
74371;SDS011;62885;51.374;6.170;2023-02-04T01:33:40;8.93;;;1.83;;
74371;SDS011;62885;51.374;6.170;2023-02-04T01:36:05;13.90;;;2.28;;
74371;SDS011;62885;51.374;6.170;2023-02-04T01:38:31;12.07;;;1.77;;
74371;SDS011;62885;51.374;6.170;2023-02-04T01:40:56;10.05;;;1.60;;
74371;SDS011;62885;51.374;6.170;2023-02-04T01:43:22;11.02;;;1.83;;
74371;SDS011;62885;51.374;6.170;2023-02-04T01:45:48;9.88;;;1.52;;
74371;SDS011;62885;51.374;6.170;2023-02-04T01:48:15;17.17;;;1.70;;
74371;SDS011;62885;51.374;6.170;2023-02-04T01:50:47;8.73;;;1.67;;
74371;SDS011;62885;51.374;6.170;2023-02-04T01:53:21;9.50;;;1.48;;
74371;SDS011;62885;51.374;6.170;2023-02-04T01:55:49;6.40;;;1.55;;
74371;SDS011;62885;51.374;6.170;2023-02-04T01:58:16;7.90;;;1.80;;
74371;SDS011;62885;51.374;6.170;2023-02-04T02:00:42;10.82;;;1.33;;
74371;SDS011;62885;51.374;6.170;2023-02-04T02:03:07;7.65;;;2.17;;
74371;SDS011;62885;51.374;6.170;2023-02-04T02:05:36;11.40;;;1.50;;
74371;SDS011;62885;51.374;6.170;2023-02-04T02:08:03;6.35;;;1.70;;
74371;SDS011;62885;51.374;6.170;2023-02-04T02:10:30;8.38;;;1.90;;
74371;SDS011;62885;51.374;6.170;2023-02-04T02:12:57;15.43;;;2.20;;
74371;SDS011;62885;51.374;6.170;2023-02-04T02:15:23;12.25;;;1.55;;
74371;SDS011;62885;51.374;6.170;2023-02-04T02:17:49;7.05;;;1.60;;
74371;SDS011;62885;51.374;6.170;2023-02-04T02:20:16;13.35;;;2.15;;
74371;SDS011;62885;51.374;6.170;2023-02-04T02:25:21;11.73;;;2.13;;
74371;SDS011;62885;51.374;6.170;2023-02-04T02:27:49;8.82;;;1.63;;
74371;SDS011;62885;51.374;6.170;2023-02-04T02:30:15;10.23;;;1.52;;
74371;SDS011;62885;51.374;6.170;2023-02-04T02:32:42;12.32;;;1.98;;
74371;SDS011;62885;51.374;6.170;2023-02-04T02:35:09;7.97;;;1.67;;
74371;SDS011;62885;51.374;6.170;2023-02-04T02:37:35;9.38;;;1.75;;
74371;SDS011;62885;51.374;6.170;2023-02-04T02:40:01;11.48;;;1.80;;
74371;SDS011;62885;51.374;6.170;2023-02-04T02:42:27;9.63;;;2.35;;
74371;SDS011;62885;51.374;6.170;2023-02-04T02:44:53;11.30;;;1.83;;
74371;SDS011;62885;51.374;6.170;2023-02-04T02:47:20;10.68;;;1.75;;
74371;SDS011;62885;51.374;6.170;2023-02-04T02:49:50;7.90;;;1.48;;
74371;SDS011;62885;51.374;6.170;2023-02-04T02:52:17;8.57;;;1.88;;
74371;SDS011;62885;51.374;6.170;2023-02-04T02:54:43;8.57;;;1.63;;
74371;SDS011;62885;51.374;6.170;2023-02-04T02:57:16;12.50;;;1.80;;
74371;SDS011;62885;51.374;6.170;2023-02-04T02:59:45;12.35;;;1.95;;
74371;SDS011;62885;51.374;6.170;2023-02-04T03:02:11;17.27;;;2.25;;
74371;SDS011;62885;51.374;6.170;2023-02-04T03:04:40;12.05;;;2.10;;
74371;SDS011;62885;51.374;6.170;2023-02-04T03:07:12;9.77;;;1.55;;
74371;SDS011;62885;51.374;6.170;2023-02-04T03:09:40;10.07;;;2.08;;
74371;SDS011;62885;51.374;6.170;2023-02-04T03:12:06;9.13;;;2.15;;
74371;SDS011;62885;51.374;6.170;2023-02-04T03:14:31;9.10;;;2.08;;
74371;SDS011;62885;51.374;6.170;2023-02-04T03:16:57;13.52;;;2.25;;
74371;SDS011;62885;51.374;6.170;2023-02-04T03:19:26;11.85;;;2.22;;
74371;SDS011;62885;51.374;6.170;2023-02-04T03:21:52;10.18;;;1.80;;
74371;SDS011;62885;51.374;6.170;2023-02-04T03:24:19;12.02;;;2.20;;
74371;SDS011;62885;51.374;6.170;2023-02-04T03:26:44;8.93;;;1.85;;
74371;SDS011;62885;51.374;6.170;2023-02-04T03:29:10;14.50;;;2.45;;
74371;SDS011;62885;51.374;6.170;2023-02-04T03:31:35;7.78;;;1.88;;
74371;SDS011;62885;51.374;6.170;2023-02-04T03:34:01;8.73;;;1.70;;
74371;SDS011;62885;51.374;6.170;2023-02-04T03:36:27;11.02;;;2.00;;
74371;SDS011;62885;51.374;6.170;2023-02-04T03:38:52;6.03;;;1.60;;
74371;SDS011;62885;51.374;6.170;2023-02-04T03:41:18;9.38;;;1.88;;
74371;SDS011;62885;51.374;6.170;2023-02-04T03:43:43;9.18;;;2.13;;
74371;SDS011;62885;51.374;6.170;2023-02-04T03:46:09;11.50;;;2.53;;
74371;SDS011;62885;51.374;6.170;2023-02-04T03:48:34;9.60;;;2.42;;
74371;SDS011;62885;51.374;6.170;2023-02-04T03:50:59;12.00;;;2.40;;
74371;SDS011;62885;51.374;6.170;2023-02-04T03:53:25;11.18;;;2.28;;
74371;SDS011;62885;51.374;6.170;2023-02-04T03:55:50;17.13;;;2.53;;
74371;SDS011;62885;51.374;6.170;2023-02-04T03:58:15;10.75;;;2.72;;
74371;SDS011;62885;51.374;6.170;2023-02-04T04:00:41;12.25;;;3.03;;
74371;SDS011;62885;51.374;6.170;2023-02-04T04:03:06;16.33;;;2.53;;
74371;SDS011;62885;51.374;6.170;2023-02-04T04:05:31;11.90;;;2.10;;
74371;SDS011;62885;51.374;6.170;2023-02-04T04:07:57;8.25;;;1.85;;
74371;SDS011;62885;51.374;6.170;2023-02-04T04:10:23;10.05;;;2.30;;
74371;SDS011;62885;51.374;6.170;2023-02-04T04:12:49;11.82;;;2.83;;
74371;SDS011;62885;51.374;6.170;2023-02-04T04:15:14;10.48;;;1.90;;
74371;SDS011;62885;51.374;6.170;2023-02-04T04:17:39;11.80;;;2.42;;
74371;SDS011;62885;51.374;6.170;2023-02-04T04:20:05;17.17;;;2.60;;
74371;SDS011;62885;51.374;6.170;2023-02-04T04:22:30;14.52;;;2.47;;
74371;SDS011;62885;51.374;6.170;2023-02-04T04:24:56;10.80;;;1.95;;
74371;SDS011;62885;51.374;6.170;2023-02-04T04:27:21;8.80;;;2.00;;
74371;SDS011;62885;51.374;6.170;2023-02-04T04:29:46;10.13;;;2.15;;
74371;SDS011;62885;51.374;6.170;2023-02-04T04:32:12;9.68;;;2.33;;
74371;SDS011;62885;51.374;6.170;2023-02-04T04:34:37;8.27;;;2.17;;
74371;SDS011;62885;51.374;6.170;2023-02-04T04:37:03;10.02;;;2.10;;
74371;SDS011;62885;51.374;6.170;2023-02-04T04:39:28;11.75;;;2.40;;
74371;SDS011;62885;51.374;6.170;2023-02-04T04:41:53;10.77;;;2.47;;
74371;SDS011;62885;51.374;6.170;2023-02-04T04:44:19;11.18;;;2.00;;
74371;SDS011;62885;51.374;6.170;2023-02-04T04:46:44;10.23;;;2.03;;
74371;SDS011;62885;51.374;6.170;2023-02-04T04:49:09;11.88;;;2.08;;
74371;SDS011;62885;51.374;6.170;2023-02-04T04:51:35;10.70;;;2.30;;
74371;SDS011;62885;51.374;6.170;2023-02-04T04:54:00;17.27;;;2.88;;
74371;SDS011;62885;51.374;6.170;2023-02-04T04:56:25;6.78;;;1.83;;
74371;SDS011;62885;51.374;6.170;2023-02-04T04:58:51;10.30;;;2.38;;
74371;SDS011;62885;51.374;6.170;2023-02-04T05:01:16;11.75;;;2.20;;
74371;SDS011;62885;51.374;6.170;2023-02-04T05:03:41;12.25;;;2.65;;
74371;SDS011;62885;51.374;6.170;2023-02-04T05:06:07;10.32;;;2.03;;
74371;SDS011;62885;51.374;6.170;2023-02-04T05:08:33;14.98;;;3.50;;
74371;SDS011;62885;51.374;6.170;2023-02-04T05:11:00;14.80;;;2.78;;
74371;SDS011;62885;51.374;6.170;2023-02-04T05:13:28;13.48;;;3.28;;
74371;SDS011;62885;51.374;6.170;2023-02-04T05:15:53;7.40;;;2.08;;
74371;SDS011;62885;51.374;6.170;2023-02-04T05:18:19;11.98;;;2.97;;
74371;SDS011;62885;51.374;6.170;2023-02-04T05:20:44;14.20;;;3.08;;
74371;SDS011;62885;51.374;6.170;2023-02-04T05:23:10;12.73;;;2.60;;
74371;SDS011;62885;51.374;6.170;2023-02-04T05:25:35;12.40;;;2.72;;
74371;SDS011;62885;51.374;6.170;2023-02-04T05:28:01;20.67;;;3.40;;
74371;SDS011;62885;51.374;6.170;2023-02-04T05:30:26;14.18;;;2.83;;
74371;SDS011;62885;51.374;6.170;2023-02-04T05:32:51;12.57;;;2.63;;
74371;SDS011;62885;51.374;6.170;2023-02-04T05:35:17;12.77;;;2.42;;
74371;SDS011;62885;51.374;6.170;2023-02-04T05:37:42;10.02;;;2.30;;
74371;SDS011;62885;51.374;6.170;2023-02-04T05:40:08;11.23;;;2.43;;
74371;SDS011;62885;51.374;6.170;2023-02-04T05:42:34;10.45;;;2.38;;
74371;SDS011;62885;51.374;6.170;2023-02-04T05:44:59;13.95;;;3.72;;
74371;SDS011;62885;51.374;6.170;2023-02-04T05:47:24;10.20;;;2.63;;
74371;SDS011;62885;51.374;6.170;2023-02-04T05:49:50;10.25;;;2.17;;
74371;SDS011;62885;51.374;6.170;2023-02-04T05:52:15;15.23;;;3.30;;
74371;SDS011;62885;51.374;6.170;2023-02-04T05:54:40;12.57;;;3.42;;
74371;SDS011;62885;51.374;6.170;2023-02-04T05:57:05;14.82;;;3.00;;
74371;SDS011;62885;51.374;6.170;2023-02-04T05:59:31;9.60;;;2.88;;
74371;SDS011;62885;51.374;6.170;2023-02-04T06:01:56;15.57;;;2.78;;
74371;SDS011;62885;51.374;6.170;2023-02-04T06:04:22;13.40;;;2.95;;
74371;SDS011;62885;51.374;6.170;2023-02-04T06:06:47;13.73;;;3.08;;
74371;SDS011;62885;51.374;6.170;2023-02-04T06:09:12;17.17;;;3.38;;
74371;SDS011;62885;51.374;6.170;2023-02-04T06:11:38;16.88;;;2.63;;
74371;SDS011;62885;51.374;6.170;2023-02-04T06:14:03;13.02;;;3.03;;
74371;SDS011;62885;51.374;6.170;2023-02-04T06:16:29;13.68;;;3.08;;
74371;SDS011;62885;51.374;6.170;2023-02-04T06:18:54;12.20;;;3.63;;
74371;SDS011;62885;51.374;6.170;2023-02-04T06:21:19;9.90;;;2.50;;
74371;SDS011;62885;51.374;6.170;2023-02-04T06:23:45;12.93;;;3.33;;
74371;SDS011;62885;51.374;6.170;2023-02-04T06:26:10;17.75;;;3.10;;
74371;SDS011;62885;51.374;6.170;2023-02-04T06:28:36;12.38;;;3.10;;
74371;SDS011;62885;51.374;6.170;2023-02-04T06:31:01;15.55;;;3.50;;
74371;SDS011;62885;51.374;6.170;2023-02-04T06:33:27;13.68;;;3.45;;
74371;SDS011;62885;51.374;6.170;2023-02-04T06:35:52;18.92;;;4.55;;
74371;SDS011;62885;51.374;6.170;2023-02-04T06:38:17;20.10;;;4.75;;
74371;SDS011;62885;51.374;6.170;2023-02-04T06:40:43;15.10;;;4.35;;
74371;SDS011;62885;51.374;6.170;2023-02-04T06:43:10;19.15;;;4.35;;
74371;SDS011;62885;51.374;6.170;2023-02-04T06:45:36;16.52;;;3.25;;
74371;SDS011;62885;51.374;6.170;2023-02-04T06:48:01;13.85;;;3.67;;
74371;SDS011;62885;51.374;6.170;2023-02-04T06:50:26;10.73;;;3.60;;
74371;SDS011;62885;51.374;6.170;2023-02-04T06:52:52;13.60;;;3.08;;
74371;SDS011;62885;51.374;6.170;2023-02-04T06:55:17;14.10;;;3.65;;
74371;SDS011;62885;51.374;6.170;2023-02-04T06:57:42;13.13;;;3.72;;
74371;SDS011;62885;51.374;6.170;2023-02-04T07:00:08;16.88;;;3.40;;
74371;SDS011;62885;51.374;6.170;2023-02-04T07:02:35;14.10;;;3.70;;
74371;SDS011;62885;51.374;6.170;2023-02-04T07:05:03;11.63;;;2.90;;
74371;SDS011;62885;51.374;6.170;2023-02-04T07:07:28;12.20;;;3.70;;
74371;SDS011;62885;51.374;6.170;2023-02-04T07:09:54;11.80;;;2.95;;
74371;SDS011;62885;51.374;6.170;2023-02-04T07:12:19;18.48;;;4.05;;
74371;SDS011;62885;51.374;6.170;2023-02-04T07:14:44;14.95;;;3.78;;
74371;SDS011;62885;51.374;6.170;2023-02-04T07:17:10;13.70;;;4.05;;
74371;SDS011;62885;51.374;6.170;2023-02-04T07:19:35;22.13;;;4.53;;
74371;SDS011;62885;51.374;6.170;2023-02-04T07:22:01;14.50;;;3.47;;
74371;SDS011;62885;51.374;6.170;2023-02-04T07:24:27;12.35;;;4.07;;
74371;SDS011;62885;51.374;6.170;2023-02-04T07:26:55;13.25;;;3.70;;
74371;SDS011;62885;51.374;6.170;2023-02-04T07:29:20;12.02;;;3.45;;
74371;SDS011;62885;51.374;6.170;2023-02-04T07:31:46;9.27;;;3.47;;
74371;SDS011;62885;51.374;6.170;2023-02-04T07:34:14;10.00;;;3.67;;
74371;SDS011;62885;51.374;6.170;2023-02-04T07:36:40;15.77;;;4.95;;
74371;SDS011;62885;51.374;6.170;2023-02-04T07:39:06;10.95;;;3.20;;
74371;SDS011;62885;51.374;6.170;2023-02-04T07:41:32;10.90;;;4.03;;
74371;SDS011;62885;51.374;6.170;2023-02-04T07:43:57;13.25;;;3.92;;
74371;SDS011;62885;51.374;6.170;2023-02-04T07:46:22;9.27;;;2.78;;
74371;SDS011;62885;51.374;6.170;2023-02-04T07:48:48;13.45;;;3.53;;
74371;SDS011;62885;51.374;6.170;2023-02-04T07:51:13;20.33;;;6.88;;
74371;SDS011;62885;51.374;6.170;2023-02-04T07:53:38;21.48;;;5.75;;
74371;SDS011;62885;51.374;6.170;2023-02-04T07:56:04;15.70;;;4.35;;
74371;SDS011;62885;51.374;6.170;2023-02-04T07:58:29;13.93;;;4.15;;
74371;SDS011;62885;51.374;6.170;2023-02-04T08:00:55;14.57;;;4.20;;
74371;SDS011;62885;51.374;6.170;2023-02-04T08:03:20;14.70;;;4.22;;
74371;SDS011;62885;51.374;6.170;2023-02-04T08:05:46;14.60;;;3.80;;
74371;SDS011;62885;51.374;6.170;2023-02-04T08:08:11;14.25;;;5.15;;
74371;SDS011;62885;51.374;6.170;2023-02-04T08:10:36;14.85;;;4.00;;
74371;SDS011;62885;51.374;6.170;2023-02-04T08:13:02;19.10;;;5.72;;
74371;SDS011;62885;51.374;6.170;2023-02-04T08:15:27;15.02;;;4.90;;
74371;SDS011;62885;51.374;6.170;2023-02-04T08:17:52;14.50;;;5.32;;
74371;SDS011;62885;51.374;6.170;2023-02-04T08:20:18;18.20;;;5.88;;
74371;SDS011;62885;51.374;6.170;2023-02-04T08:22:43;14.75;;;5.72;;
74371;SDS011;62885;51.374;6.170;2023-02-04T08:25:10;18.75;;;5.57;;
74371;SDS011;62885;51.374;6.170;2023-02-04T08:27:36;24.95;;;5.78;;
74371;SDS011;62885;51.374;6.170;2023-02-04T08:30:03;18.27;;;5.65;;
74371;SDS011;62885;51.374;6.170;2023-02-04T08:32:29;18.13;;;5.68;;
74371;SDS011;62885;51.374;6.170;2023-02-04T08:34:55;17.02;;;6.47;;
74371;SDS011;62885;51.374;6.170;2023-02-04T08:37:21;24.17;;;6.35;;
74371;SDS011;62885;51.374;6.170;2023-02-04T08:39:46;18.13;;;5.60;;
74371;SDS011;62885;51.374;6.170;2023-02-04T08:42:13;17.92;;;6.28;;
74371;SDS011;62885;51.374;6.170;2023-02-04T08:44:39;20.98;;;5.93;;
74371;SDS011;62885;51.374;6.170;2023-02-04T08:47:04;24.25;;;6.65;;
74371;SDS011;62885;51.374;6.170;2023-02-04T08:49:30;18.98;;;6.47;;
74371;SDS011;62885;51.374;6.170;2023-02-04T08:51:55;18.70;;;5.70;;
74371;SDS011;62885;51.374;6.170;2023-02-04T08:54:20;15.25;;;5.75;;
74371;SDS011;62885;51.374;6.170;2023-02-04T08:56:46;20.70;;;5.32;;
74371;SDS011;62885;51.374;6.170;2023-02-04T08:59:11;18.25;;;5.68;;
74371;SDS011;62885;51.374;6.170;2023-02-04T09:01:36;17.77;;;5.47;;
74371;SDS011;62885;51.374;6.170;2023-02-04T09:04:02;20.08;;;6.13;;
74371;SDS011;62885;51.374;6.170;2023-02-04T09:06:27;18.55;;;5.68;;
74371;SDS011;62885;51.374;6.170;2023-02-04T09:08:53;21.13;;;5.93;;
74371;SDS011;62885;51.374;6.170;2023-02-04T09:11:18;24.50;;;6.65;;
74371;SDS011;62885;51.374;6.170;2023-02-04T09:13:43;18.52;;;5.68;;
74371;SDS011;62885;51.374;6.170;2023-02-04T09:16:09;21.60;;;6.00;;
74371;SDS011;62885;51.374;6.170;2023-02-04T09:18:34;17.25;;;5.80;;
74371;SDS011;62885;51.374;6.170;2023-02-04T09:21:00;14.50;;;4.93;;
74371;SDS011;62885;51.374;6.170;2023-02-04T09:23:25;18.25;;;5.20;;
74371;SDS011;62885;51.374;6.170;2023-02-04T09:25:51;20.88;;;7.93;;
74371;SDS011;62885;51.374;6.170;2023-02-04T09:28:16;15.63;;;5.88;;
74371;SDS011;62885;51.374;6.170;2023-02-04T09:30:42;18.27;;;5.18;;
74371;SDS011;62885;51.374;6.170;2023-02-04T09:33:10;16.63;;;5.78;;
74371;SDS011;62885;51.374;6.170;2023-02-04T09:35:36;18.55;;;7.15;;
74371;SDS011;62885;51.374;6.170;2023-02-04T09:38:02;19.55;;;6.10;;
74371;SDS011;62885;51.374;6.170;2023-02-04T09:40:29;17.13;;;5.93;;
74371;SDS011;62885;51.374;6.170;2023-02-04T09:43:01;18.55;;;5.55;;
74371;SDS011;62885;51.374;6.170;2023-02-04T09:45:28;21.38;;;5.45;;
74371;SDS011;62885;51.374;6.170;2023-02-04T09:47:57;19.48;;;5.82;;
74371;SDS011;62885;51.374;6.170;2023-02-04T09:50:25;18.42;;;6.13;;
74371;SDS011;62885;51.374;6.170;2023-02-04T09:52:54;18.42;;;5.97;;
74371;SDS011;62885;51.374;6.170;2023-02-04T09:55:24;21.02;;;6.07;;
74371;SDS011;62885;51.374;6.170;2023-02-04T09:57:53;12.55;;;5.20;;
74371;SDS011;62885;51.374;6.170;2023-02-04T10:00:20;19.45;;;6.53;;
74371;SDS011;62885;51.374;6.170;2023-02-04T10:02:47;17.25;;;5.00;;
74371;SDS011;62885;51.374;6.170;2023-02-04T10:05:13;19.33;;;5.95;;
74371;SDS011;62885;51.374;6.170;2023-02-04T10:07:41;21.70;;;5.43;;
74371;SDS011;62885;51.374;6.170;2023-02-04T10:10:20;21.10;;;6.65;;
74371;SDS011;62885;51.374;6.170;2023-02-04T10:12:50;21.33;;;5.00;;
74371;SDS011;62885;51.374;6.170;2023-02-04T10:15:17;19.85;;;4.80;;
74371;SDS011;62885;51.374;6.170;2023-02-04T10:17:47;19.83;;;5.65;;
74371;SDS011;62885;51.374;6.170;2023-02-04T10:20:16;14.45;;;5.20;;
74371;SDS011;62885;51.374;6.170;2023-02-04T10:22:44;20.67;;;6.30;;
74371;SDS011;62885;51.374;6.170;2023-02-04T10:25:13;18.30;;;5.85;;
74371;SDS011;62885;51.374;6.170;2023-02-04T10:27:58;18.73;;;4.97;;
74371;SDS011;62885;51.374;6.170;2023-02-04T10:32:51;16.45;;;5.07;;
74371;SDS011;62885;51.374;6.170;2023-02-04T10:35:18;18.95;;;4.85;;
74371;SDS011;62885;51.374;6.170;2023-02-04T10:37:45;16.25;;;4.47;;
74371;SDS011;62885;51.374;6.170;2023-02-04T10:40:30;16.95;;;4.82;;
74371;SDS011;62885;51.374;6.170;2023-02-04T10:43:06;15.80;;;4.30;;
74371;SDS011;62885;51.374;6.170;2023-02-04T10:45:37;17.15;;;4.70;;
74371;SDS011;62885;51.374;6.170;2023-02-04T10:48:03;14.27;;;5.05;;
74371;SDS011;62885;51.374;6.170;2023-02-04T10:50:28;18.10;;;4.68;;
74371;SDS011;62885;51.374;6.170;2023-02-04T10:52:55;21.33;;;5.75;;
74371;SDS011;62885;51.374;6.170;2023-02-04T10:55:42;13.20;;;4.75;;
74371;SDS011;62885;51.374;6.170;2023-02-04T10:58:26;16.92;;;4.93;;
74371;SDS011;62885;51.374;6.170;2023-02-04T11:00:52;18.35;;;4.20;;
74371;SDS011;62885;51.374;6.170;2023-02-04T11:03:19;21.35;;;5.13;;
74371;SDS011;62885;51.374;6.170;2023-02-04T11:05:47;22.58;;;5.22;;
74371;SDS011;62885;51.374;6.170;2023-02-04T11:08:46;18.65;;;5.22;;
74371;SDS011;62885;51.374;6.170;2023-02-04T11:11:10;15.55;;;5.72;;
74371;SDS011;62885;51.374;6.170;2023-02-04T11:14:02;17.23;;;5.50;;
74371;SDS011;62885;51.374;6.170;2023-02-04T11:16:34;20.33;;;5.88;;
74371;SDS011;62885;51.374;6.170;2023-02-04T11:19:11;17.80;;;5.28;;
74371;SDS011;62885;51.374;6.170;2023-02-04T11:26:47;17.50;;;5.13;;
74371;SDS011;62885;51.374;6.170;2023-02-04T11:29:51;15.80;;;4.80;;
74371;SDS011;62885;51.374;6.170;2023-02-04T11:32:29;19.42;;;5.93;;
74371;SDS011;62885;51.374;6.170;2023-02-04T11:35:07;29.55;;;6.40;;
74371;SDS011;62885;51.374;6.170;2023-02-04T11:37:45;14.98;;;4.75;;
74371;SDS011;62885;51.374;6.170;2023-02-04T11:40:19;17.02;;;4.90;;
74371;SDS011;62885;51.374;6.170;2023-02-04T11:42:48;25.55;;;5.45;;
74371;SDS011;62885;51.374;6.170;2023-02-04T11:45:21;16.75;;;3.88;;
74371;SDS011;62885;51.374;6.170;2023-02-04T11:47:50;18.85;;;4.28;;
74371;SDS011;62885;51.374;6.170;2023-02-04T11:50:19;24.13;;;4.57;;
74371;SDS011;62885;51.374;6.170;2023-02-04T11:52:47;16.83;;;4.35;;
74371;SDS011;62885;51.374;6.170;2023-02-04T11:55:12;13.88;;;3.60;;
74371;SDS011;62885;51.374;6.170;2023-02-04T11:57:39;16.75;;;3.97;;
74371;SDS011;62885;51.374;6.170;2023-02-04T12:00:15;16.40;;;3.15;;
74371;SDS011;62885;51.374;6.170;2023-02-04T12:02:43;20.50;;;2.60;;
74371;SDS011;62885;51.374;6.170;2023-02-04T12:05:16;13.15;;;2.72;;
74371;SDS011;62885;51.374;6.170;2023-02-04T12:07:43;16.85;;;3.53;;
74371;SDS011;62885;51.374;6.170;2023-02-04T12:10:13;20.55;;;2.88;;
74371;SDS011;62885;51.374;6.170;2023-02-04T12:12:49;18.95;;;3.40;;
74371;SDS011;62885;51.374;6.170;2023-02-04T12:15:39;14.50;;;3.17;;
74371;SDS011;62885;51.374;6.170;2023-02-04T12:18:06;12.57;;;2.60;;
74371;SDS011;62885;51.374;6.170;2023-02-04T12:20:34;16.80;;;3.38;;
74371;SDS011;62885;51.374;6.170;2023-02-04T12:23:00;19.67;;;2.80;;
74371;SDS011;62885;51.374;6.170;2023-02-04T12:25:26;19.58;;;3.42;;
74371;SDS011;62885;51.374;6.170;2023-02-04T12:27:54;17.15;;;3.83;;
74371;SDS011;62885;51.374;6.170;2023-02-04T12:30:21;14.25;;;2.63;;
74371;SDS011;62885;51.374;6.170;2023-02-04T12:32:47;17.85;;;3.40;;
74371;SDS011;62885;51.374;6.170;2023-02-04T12:35:13;14.68;;;2.58;;
74371;SDS011;62885;51.374;6.170;2023-02-04T12:37:38;15.82;;;3.53;;
74371;SDS011;62885;51.374;6.170;2023-02-04T12:40:04;19.48;;;2.92;;
74371;SDS011;62885;51.374;6.170;2023-02-04T12:42:30;15.38;;;3.17;;
74371;SDS011;62885;51.374;6.170;2023-02-04T12:44:55;13.95;;;3.08;;
74371;SDS011;62885;51.374;6.170;2023-02-04T12:47:20;15.95;;;2.70;;
74371;SDS011;62885;51.374;6.170;2023-02-04T12:49:46;17.33;;;2.65;;
74371;SDS011;62885;51.374;6.170;2023-02-04T12:52:12;13.85;;;3.35;;
74371;SDS011;62885;51.374;6.170;2023-02-04T12:54:40;11.10;;;2.20;;
74371;SDS011;62885;51.374;6.170;2023-02-04T12:57:05;15.90;;;3.08;;
74371;SDS011;62885;51.374;6.170;2023-02-04T12:59:30;11.32;;;2.47;;
74371;SDS011;62885;51.374;6.170;2023-02-04T13:01:56;13.57;;;2.80;;
74371;SDS011;62885;51.374;6.170;2023-02-04T13:04:22;15.35;;;3.03;;
74371;SDS011;62885;51.374;6.170;2023-02-04T13:06:47;13.35;;;3.35;;
74371;SDS011;62885;51.374;6.170;2023-02-04T13:09:13;12.75;;;3.28;;
74371;SDS011;62885;51.374;6.170;2023-02-04T13:11:38;17.60;;;3.45;;
74371;SDS011;62885;51.374;6.170;2023-02-04T13:14:03;10.63;;;3.50;;
74371;SDS011;62885;51.374;6.170;2023-02-04T13:16:29;13.68;;;2.88;;
74371;SDS011;62885;51.374;6.170;2023-02-04T13:18:54;17.85;;;3.78;;
74371;SDS011;62885;51.374;6.170;2023-02-04T13:21:19;17.25;;;3.22;;
74371;SDS011;62885;51.374;6.170;2023-02-04T13:23:45;13.77;;;2.55;;
74371;SDS011;62885;51.374;6.170;2023-02-04T13:26:10;17.27;;;2.83;;
74371;SDS011;62885;51.374;6.170;2023-02-04T13:28:36;12.38;;;2.55;;
74371;SDS011;62885;51.374;6.170;2023-02-04T13:31:01;14.13;;;3.40;;
74371;SDS011;62885;51.374;6.170;2023-02-04T13:33:27;15.15;;;3.22;;
74371;SDS011;62885;51.374;6.170;2023-02-04T13:35:52;11.23;;;2.88;;
74371;SDS011;62885;51.374;6.170;2023-02-04T13:38:18;10.63;;;2.90;;
74371;SDS011;62885;51.374;6.170;2023-02-04T13:40:43;14.48;;;3.33;;
74371;SDS011;62885;51.374;6.170;2023-02-04T13:43:08;21.05;;;3.40;;
74371;SDS011;62885;51.374;6.170;2023-02-04T13:45:34;12.23;;;2.67;;
74371;SDS011;62885;51.374;6.170;2023-02-04T13:47:59;19.10;;;2.90;;
74371;SDS011;62885;51.374;6.170;2023-02-04T13:50:25;18.85;;;3.78;;
74371;SDS011;62885;51.374;6.170;2023-02-04T13:52:50;15.57;;;3.10;;
74371;SDS011;62885;51.374;6.170;2023-02-04T13:55:16;20.48;;;5.32;;
74371;SDS011;62885;51.374;6.170;2023-02-04T13:57:41;10.93;;;3.15;;
74371;SDS011;62885;51.374;6.170;2023-02-04T14:00:07;21.77;;;2.88;;
74371;SDS011;62885;51.374;6.170;2023-02-04T14:02:33;11.65;;;2.40;;
74371;SDS011;62885;51.374;6.170;2023-02-04T14:04:58;13.38;;;2.90;;
74371;SDS011;62885;51.374;6.170;2023-02-04T14:07:24;12.73;;;2.45;;
74371;SDS011;62885;51.374;6.170;2023-02-04T14:09:50;15.80;;;2.63;;
74371;SDS011;62885;51.374;6.170;2023-02-04T14:12:15;11.20;;;2.45;;
74371;SDS011;62885;51.374;6.170;2023-02-04T14:14:40;24.55;;;4.95;;
74371;SDS011;62885;51.374;6.170;2023-02-04T14:17:06;16.77;;;3.50;;
74371;SDS011;62885;51.374;6.170;2023-02-04T14:19:31;15.13;;;3.10;;
74371;SDS011;62885;51.374;6.170;2023-02-04T14:21:57;15.27;;;3.42;;
74371;SDS011;62885;51.374;6.170;2023-02-04T14:24:23;13.40;;;3.47;;
74371;SDS011;62885;51.374;6.170;2023-02-04T14:26:49;19.17;;;3.72;;
74371;SDS011;62885;51.374;6.170;2023-02-04T14:29:14;10.70;;;2.85;;
74371;SDS011;62885;51.374;6.170;2023-02-04T14:31:40;13.75;;;3.22;;
74371;SDS011;62885;51.374;6.170;2023-02-04T14:34:05;12.00;;;3.35;;
74371;SDS011;62885;51.374;6.170;2023-02-04T14:36:31;20.27;;;3.70;;
74371;SDS011;62885;51.374;6.170;2023-02-04T14:38:56;14.55;;;3.95;;
74371;SDS011;62885;51.374;6.170;2023-02-04T14:41:22;18.92;;;4.07;;
74371;SDS011;62885;51.374;6.170;2023-02-04T14:43:50;19.63;;;3.28;;